Time;durP1;ratioP1;P1;durP2;ratioP2;P2;SDS_P1;SDS_P2;PMS_P1;PMS_P2;Temp;Humidity;BMP_temperature;BMP_pressure;BME280_temperature;BME280_humidity;BME280_pressure;Samples;Min_cycle;Max_cycle;Signal;HPM_P1;HPM_P2
2024/01/10 00:00:16;;;;;;;;;;;-5.00;99.90;;;-6.54;100.00;98601.16;5061022;28;1565;-66
2024/01/10 00:02:43;;;;;;;;;;;-5.00;99.90;;;-6.55;100.00;98602.81;5062181;28;1478;-68
2024/01/10 00:05:10;;;;;;;;;;;-5.00;99.90;;;-6.57;100.00;98603.53;5058924;28;1411;-68
2024/01/10 00:07:37;;;;;;;;;;;-5.00;99.90;;;-6.70;100.00;98598.78;5059805;28;1735;-69
2024/01/10 00:10:04;;;;;;;;;;;-5.10;99.90;;;-6.66;100.00;98595.59;5058075;28;1914;-68
2024/01/10 00:12:35;;;;;;;;;;;-5.10;99.90;;;-6.74;100.00;98596.13;5058556;28;2300;-68
2024/01/10 00:15:04;;;;;;;;;;;-5.10;99.90;;;-6.71;100.00;98592.88;5058904;28;1851;-68
2024/01/10 00:17:31;;;;;;;;;;;-5.10;99.90;;;-6.66;100.00;98590.53;5058065;28;1506;-69
2024/01/10 00:19:58;;;;;;;;;;;-5.10;99.90;;;-6.60;100.00;98591.66;5058108;28;1482;-68
2024/01/10 00:22:24;;;;;;;;;;;-5.10;99.90;;;-6.68;100.00;98585.44;5055785;28;1598;-69
2024/01/10 00:24:51;;;;;;;;;;;-5.10;99.90;;;-6.70;100.00;98576.94;5040308;28;1757;-68
2024/01/10 00:27:18;;;;;;;;;;;-5.10;99.90;;;-6.70;100.00;98583.63;5040791;28;3631;-69
2024/01/10 00:29:45;;;;;;;;;;;-5.20;99.90;;;-6.69;100.00;98582.84;5058135;28;1498;-68
2024/01/10 00:32:12;;;;;;;;;;;-5.20;99.90;;;-6.75;100.00;98581.81;5055916;28;1910;-66
2024/01/10 00:34:39;;;;;;;;;;;-5.30;99.90;;;-6.76;100.00;98586.78;5059039;28;1450;-68
2024/01/10 00:37:06;;;;;;;;;;;-5.30;99.90;;;-6.75;100.00;98581.81;5041317;28;1528;-68
2024/01/10 00:39:32;;;;;;;;;;;-5.30;99.90;;;-6.81;100.00;98584.06;5060602;28;1478;-68
2024/01/10 00:41:59;;;;;;;;;;;-5.20;99.90;;;-6.76;100.00;98577.53;5057326;28;1454;-68
2024/01/10 00:44:26;;;;;;;;;;;-5.20;99.90;;;-6.80;100.00;98582.41;5057893;28;2704;-68
2024/01/10 00:46:53;;;;;;;;;;;-5.30;99.90;;;-6.71;100.00;98586.97;5039485;28;1518;-67
2024/01/10 00:49:20;;;;;;;;;;;-5.20;99.90;;;-6.74;100.00;98583.50;5041420;28;1385;-69
2024/01/10 00:51:47;;;;;;;;;;;-5.20;99.90;;;-6.72;100.00;98578.53;5057334;28;2707;-68
2024/01/10 00:54:14;;;;;;;;;;;-5.20;99.90;;;-6.76;100.00;98575.00;5056082;28;2677;-68
2024/01/10 00:56:41;;;;;;;;;;;-5.20;99.90;;;-6.72;100.00;98573.50;5057793;28;1647;-68
2024/01/10 00:59:08;;;;;;;;;;;-5.20;99.90;;;-6.66;100.00;98570.34;5057663;28;1609;-69
2024/01/10 01:01:34;;;;;;;;;;;-5.20;99.90;;;-6.73;100.00;98569.22;5059246;28;1749;-68
2024/01/10 01:04:02;;;;;;;;;;;-5.20;99.90;;;-6.64;100.00;98566.22;5058991;28;1813;-68
2024/01/10 01:06:28;;;;;;;;;;;-5.10;99.90;;;-6.73;100.00;98564.19;5058754;28;1479;-68
2024/01/10 01:08:56;;;;;;;;;;;-5.20;99.90;;;-6.57;100.00;98551.41;5062471;28;3202;-68
2024/01/10 01:11:23;;;;;;;;;;;-5.10;99.90;;;-6.68;100.00;98552.63;5061762;28;2005;-68
2024/01/10 01:13:50;;;;;;;;;;;-5.20;99.90;;;-6.68;100.00;98549.22;5060083;28;1807;-68
2024/01/10 01:16:17;;;;;;;;;;;-5.20;99.90;;;-6.64;100.00;98546.88;5047545;28;1613;-65
2024/01/10 01:18:45;;;;;;;;;;;-5.10;99.90;;;-6.60;100.00;98555.44;5064583;28;1518;-68
2024/01/10 01:21:12;;;;;;;;;;;-5.10;99.90;;;-6.60;100.00;98551.25;5061861;28;1995;-69
2024/01/10 01:23:39;;;;;;;;;;;-5.20;99.90;;;-6.63;100.00;98555.34;5062495;28;2597;-68
2024/01/10 01:26:08;;;;;;;;;;;-5.20;99.90;;;-6.50;100.00;98551.63;5061073;28;1565;-69
2024/01/10 01:28:35;;;;;;;;;;;-5.10;99.90;;;-6.59;100.00;98544.53;5063376;28;1467;-69
2024/01/10 01:31:05;;;;;;;;;;;-5.00;99.90;;;-6.56;100.00;98547.19;5060919;28;1898;-68
2024/01/10 01:33:32;;;;;;;;;;;-5.00;99.90;;;-6.61;100.00;98546.16;5063178;28;1420;-68
2024/01/10 01:36:00;;;;;;;;;;;-5.00;99.90;;;-6.46;100.00;98540.84;5043606;28;2276;-68
2024/01/10 01:38:26;;;;;;;;;;;-4.90;99.90;;;-6.49;100.00;98543.25;5060332;28;1716;-69
2024/01/10 01:40:53;;;;;;;;;;;-5.00;99.90;;;-6.52;100.00;98549.91;5063915;28;1463;-68
2024/01/10 01:43:25;;;;;;;;;;;-5.00;99.90;;;-6.48;100.00;98538.25;5060908;28;2030;-68
2024/01/10 01:45:55;;;;;;;;;;;-5.00;99.90;;;-6.54;100.00;98541.41;5061717;28;1427;-68
2024/01/10 01:48:23;;;;;;;;;;;-5.00;99.90;;;-6.50;100.00;98542.38;5061934;28;3303;-67
2024/01/10 01:50:53;;;;;;;;;;;-5.00;99.90;;;-6.49;100.00;98536.53;5059990;28;2690;-69
2024/01/10 01:53:20;;;;;;;;;;;-5.00;99.90;;;-6.43;100.00;98541.84;5063452;28;1648;-68
2024/01/10 01:55:47;;;;;;;;;;;-5.00;99.90;;;-6.45;100.00;98529.94;5063075;28;2633;-70
2024/01/10 01:58:14;;;;;;;;;;;-4.90;99.90;;;-6.46;100.00;98534.13;5043580;28;1393;-67
2024/01/10 02:00:41;;;;;;;;;;;-4.90;99.90;;;-6.41;100.00;98531.78;5062643;28;1654;-69
2024/01/10 02:03:09;;;;;;;;;;;-4.90;99.90;;;-6.42;100.00;98535.13;5065359;28;1431;-68
2024/01/10 02:05:36;;;;;;;;;;;-4.90;99.90;;;-6.44;100.00;98539.25;5047018;28;2548;-69
2024/01/10 02:08:04;;;;;;;;;;;-4.90;99.90;;;-6.49;100.00;98520.53;5061655;28;1638;-66
2024/01/10 02:10:31;;;;;;;;;;;-4.90;99.90;;;-6.47;100.00;98517.25;5061899;28;1993;-68
2024/01/10 02:12:58;;;;;;;;;;;-5.00;99.90;;;-6.38;100.00;98515.09;5058369;28;1528;-68
2024/01/10 02:15:27;;;;;;;;;;;-4.90;99.90;;;-6.42;100.00;98523.34;5059801;28;1509;-68
2024/01/10 02:17:54;;;;;;;;;;;-4.90;99.90;;;-6.36;100.00;98527.78;5060652;28;2059;-68
2024/01/10 02:20:21;;;;;;;;;;;-4.90;99.90;;;-6.41;100.00;98519.16;5060467;28;1368;-67
2024/01/10 02:22:50;;;;;;;;;;;-4.90;99.90;;;-6.42;100.00;98513.25;5063306;28;1757;-68
2024/01/10 02:25:17;;;;;;;;;;;-5.00;99.90;;;-6.44;100.00;98514.00;5061733;28;1304;-69
2024/01/10 02:27:44;;;;;;;;;;;-4.90;99.90;;;-6.37;100.00;98526.06;5061220;28;1451;-67
2024/01/10 02:30:11;;;;;;;;;;;-4.90;99.90;;;-6.37;100.00;98511.75;5058707;28;1759;-69
2024/01/10 02:32:38;;;;;;;;;;;-4.90;99.90;;;-6.37;100.00;98513.44;5042998;28;3090;-70
2024/01/10 02:35:06;;;;;;;;;;;-4.90;99.90;;;-6.30;100.00;98512.84;5058796;28;1635;-69
2024/01/10 02:37:34;;;;;;;;;;;-4.80;99.90;;;-6.34;100.00;98511.00;5060831;28;1424;-68
2024/01/10 02:40:00;;;;;;;;;;;-4.90;99.90;;;-6.44;100.00;98507.28;5061288;28;1376;-69
2024/01/10 02:42:28;;;;;;;;;;;-4.90;99.90;;;-6.39;100.00;98500.72;5061269;28;1431;-68
2024/01/10 02:44:55;;;;;;;;;;;-4.90;99.90;;;-6.45;100.00;98508.09;5060123;28;1381;-69
2024/01/10 02:47:22;;;;;;;;;;;-4.90;99.90;;;-6.43;100.00;98514.06;5043504;28;2103;-69
2024/01/10 02:49:49;;;;;;;;;;;-4.90;99.90;;;-6.46;100.00;98502.97;5060065;28;1467;-67
2024/01/10 02:52:16;;;;;;;;;;;-4.90;99.90;;;-6.46;100.00;98502.97;5062600;28;1902;-68
2024/01/10 02:54:43;;;;;;;;;;;-4.90;99.90;;;-6.52;100.00;98509.50;5060618;28;1392;-69
2024/01/10 02:57:10;;;;;;;;;;;-5.10;99.90;;;-6.52;100.00;98501.94;5061842;28;1388;-69
2024/01/10 02:59:37;;;;;;;;;;;-5.00;99.90;;;-6.48;100.00;98504.56;5042075;28;2479;-68
2024/01/10 03:02:04;;;;;;;;;;;-5.00;99.90;;;-6.39;100.00;98513.34;5041071;28;1482;-69
2024/01/10 03:04:31;;;;;;;;;;;-4.90;99.90;;;-6.46;100.00;98508.88;5060883;28;1713;-68
2024/01/10 03:06:57;;;;;;;;;;;-4.90;99.90;;;-6.46;100.00;98502.97;5059823;28;1464;-69
2024/01/10 03:09:24;;;;;;;;;;;-4.90;99.90;;;-6.50;100.00;98504.50;5061031;28;1490;-68
2024/01/10 03:11:51;;;;;;;;;;;-5.00;99.90;;;-6.44;100.00;98501.38;5058538;28;1989;-66
2024/01/10 03:14:20;;;;;;;;;;;-4.90;99.90;;;-6.43;100.00;98503.06;5060292;28;1434;-69
2024/01/10 03:16:48;;;;;;;;;;;-4.90;99.90;;;-6.44;100.00;98504.75;5060797;28;1368;-68
2024/01/10 03:19:15;;;;;;;;;;;-4.90;99.90;;;-6.38;100.00;98510.03;5057113;28;1710;-68
2024/01/10 03:21:42;;;;;;;;;;;-4.90;99.90;;;-6.38;100.00;98514.25;5058911;28;1442;-68
2024/01/10 03:24:09;;;;;;;;;;;-5.00;99.90;;;-6.31;100.00;98522.09;5060321;28;1441;-67
2024/01/10 03:26:35;;;;;;;;;;;-5.00;99.90;;;-6.32;100.00;98516.97;5059714;28;1655;-68
2024/01/10 03:29:03;;;;;;;;;;;-5.00;99.90;;;-6.36;100.00;98508.44;5058750;28;3352;-66
2024/01/10 03:31:30;;;;;;;;;;;-4.90;99.90;;;-6.48;100.00;98515.53;5058461;28;2321;-70
2024/01/10 03:33:58;;;;;;;;;;;-4.90;99.90;;;-6.49;100.00;98511.28;5059109;28;1682;-68
2024/01/10 03:36:28;;;;;;;;;;;-5.00;99.90;;;-6.50;100.00;98509.53;5057804;28;1379;-68
2024/01/10 03:38:54;;;;;;;;;;;-4.90;99.90;;;-6.44;100.00;98514.84;5058884;28;1323;-69
2024/01/10 03:41:22;;;;;;;;;;;-4.90;99.90;;;-6.43;100.00;98515.69;5056254;28;1463;-69
2024/01/10 03:43:50;;;;;;;;;;;-4.90;99.90;;;-6.44;100.00;98511.47;5059241;28;2277;-68
2024/01/10 03:46:17;;;;;;;;;;;-4.90;99.90;;;-6.45;100.00;98515.66;5058146;28;1576;-68
2024/01/10 03:48:50;;;;;;;;;;;-5.00;99.90;;;-6.49;100.00;98518.88;5058519;28;2524;-70
2024/01/10 03:51:18;;;;;;;;;;;-5.00;99.90;;;-6.62;100.00;98514.97;5060444;28;1975;-68
2024/01/10 03:53:45;;;;;;;;;;;-5.00;99.90;;;-6.47;100.00;98523.97;5042873;28;2630;-67
2024/01/10 03:56:12;;;;;;;;;;;-5.00;99.90;;;-6.45;100.00;98523.25;5040770;28;1548;-68
2024/01/10 03:58:39;;;;;;;;;;;-5.00;99.90;;;-6.56;100.00;98515.22;5059226;28;1320;-68
2024/01/10 04:01:09;;;;;;;;;;;-5.00;99.90;;;-6.45;100.00;98518.19;5059447;28;1372;-68
2024/01/10 04:03:36;;;;;;;;;;;-5.00;99.90;;;-6.58;100.00;98514.31;5056733;28;1391;-67
2024/01/10 04:06:03;;;;;;;;;;;-5.00;99.90;;;-6.63;100.00;98515.78;5058455;28;1862;-68
2024/01/10 04:08:30;;;;;;;;;;;-5.10;99.90;;;-6.66;100.00;98517.31;5058563;28;3003;-68
2024/01/10 04:10:57;;;;;;;;;;;-5.10;99.90;;;-6.66;100.00;98525.78;5060254;28;1443;-68
2024/01/10 04:13:24;;;;;;;;;;;-5.10;99.90;;;-6.78;100.00;98523.59;5060448;28;1969;-68
2024/01/10 04:15:52;;;;;;;;;;;-5.20;99.90;;;-6.69;100.00;98524.78;5039424;28;1453;-69
2024/01/10 04:18:19;;;;;;;;;;;-5.20;99.90;;;-6.69;100.00;98535.72;5058532;28;1427;-68
2024/01/10 04:20:47;;;;;;;;;;;-5.20;99.90;;;-6.69;100.00;98540.78;5044302;28;1365;-68
2024/01/10 04:23:14;;;;;;;;;;;-5.10;99.90;;;-6.79;100.00;98538.69;5057479;28;2277;-68
2024/01/10 04:25:41;;;;;;;;;;;-5.10;99.90;;;-6.89;100.00;98545.00;5059329;28;1687;-68
2024/01/10 04:28:08;;;;;;;;;;;-5.20;99.90;;;-6.89;100.00;98536.56;5056646;28;1376;-68
2024/01/10 04:30:35;;;;;;;;;;;-5.20;99.90;;;-6.87;100.00;98537.50;5058986;28;1563;-68
2024/01/10 04:33:02;;;;;;;;;;;-5.30;99.90;;;-6.86;100.00;98540.09;5059764;28;1902;-69
2024/01/10 04:35:29;;;;;;;;;;;-5.30;99.90;;;-6.87;100.00;98537.50;5058728;28;1337;-67
2024/01/10 04:37:56;;;;;;;;;;;-5.30;99.90;;;-6.84;100.00;98541.03;5058576;28;2427;-68
2024/01/10 04:40:23;;;;;;;;;;;-5.30;99.90;;;-6.95;100.00;98535.53;5058420;28;2806;-68
2024/01/10 04:42:50;;;;;;;;;;;-5.30;99.90;;;-6.98;100.00;98532.88;5060287;28;1444;-68
2024/01/10 04:45:16;;;;;;;;;;;-5.30;99.90;;;-6.88;100.00;98531.59;5063404;28;1757;-70
2024/01/10 04:47:44;;;;;;;;;;;-5.40;99.90;;;-6.83;100.00;98525.06;5065193;28;1391;-69
2024/01/10 04:50:12;;;;;;;;;;;-5.40;99.90;;;-6.89;100.00;98534.06;5060158;28;1441;-69
2024/01/10 04:52:40;;;;;;;;;;;-5.40;99.90;;;-6.89;100.00;98519.75;5064387;28;2924;-69
2024/01/10 04:55:08;;;;;;;;;;;-5.30;99.90;;;-6.98;100.00;98519.38;5063723;28;1329;-69
2024/01/10 04:57:35;;;;;;;;;;;-5.40;99.90;;;-6.95;100.00;98527.97;5065171;28;1518;-68
2024/01/10 05:00:04;;;;;;;;;;;-5.40;99.90;;;-7.02;100.00;98525.13;5045163;28;1565;-68
2024/01/10 05:02:31;;;;;;;;;;;-5.40;99.90;;;-6.91;100.00;98517.97;5044565;28;1577;-68
2024/01/10 05:04:59;;;;;;;;;;;-5.40;99.90;;;-6.80;100.00;98517.63;5056467;28;1510;-69
2024/01/10 05:07:26;;;;;;;;;;;-5.40;99.90;;;-6.84;100.00;98518.31;5058081;28;1822;-69
2024/01/10 05:09:53;;;;;;;;;;;-5.30;99.90;;;-6.91;100.00;98521.38;5063101;28;1801;-69
2024/01/10 05:12:20;;;;;;;;;;;-5.40;99.90;;;-6.82;100.00;98518.34;5062382;28;1927;-67
2024/01/10 05:14:47;;;;;;;;;;;-5.30;99.90;;;-6.87;100.00;98529.94;5062016;28;1880;-68
2024/01/10 05:17:15;;;;;;;;;;;-5.40;99.90;;;-6.78;100.00;98523.59;5060669;28;1702;-68
2024/01/10 05:19:42;;;;;;;;;;;-5.30;99.90;;;-6.82;100.00;98523.41;5063708;28;1394;-68
2024/01/10 05:22:09;;;;;;;;;;;-5.30;99.90;;;-6.83;100.00;98517.50;5059876;28;2372;-69
2024/01/10 05:24:36;;;;;;;;;;;-5.30;99.90;;;-6.78;100.00;98505.06;5058603;28;2805;-68
2024/01/10 05:27:03;;;;;;;;;;;-5.30;99.90;;;-6.76;100.00;98508.53;5060072;28;1910;-69
2024/01/10 05:29:33;;;;;;;;;;;-5.30;99.90;;;-6.89;100.00;98509.66;5063090;28;1655;-69
2024/01/10 05:31:59;;;;;;;;;;;-5.30;99.90;;;-6.79;100.00;98521.03;5063011;28;1979;-68
2024/01/10 05:34:27;;;;;;;;;;;-5.30;99.90;;;-6.72;100.00;98519.63;5062207;28;1737;-68
2024/01/10 05:36:53;;;;;;;;;;;-5.30;99.90;;;-6.68;100.00;98517.28;5060198;28;3146;-70
2024/01/10 05:39:21;;;;;;;;;;;-5.20;99.90;;;-6.84;100.00;98528.41;5063355;28;1353;-70
2024/01/10 05:41:48;;;;;;;;;;;-5.30;99.90;;;-6.83;100.00;98524.22;5063190;28;1451;-69
2024/01/10 05:44:15;;;;;;;;;;;-5.30;99.90;;;-6.77;100.00;98520.28;5062967;28;1364;-69
2024/01/10 05:46:42;;;;;;;;;;;-5.30;99.90;;;-6.71;100.00;98521.31;5062955;28;2206;-68
2024/01/10 05:49:10;;;;;;;;;;;-5.30;99.90;;;-6.63;100.00;98518.31;5063609;28;1527;-68
2024/01/10 05:51:39;;;;;;;;;;;-5.20;99.90;;;-6.68;100.00;98519.81;5060163;28;2703;-66
2024/01/10 05:54:07;;;;;;;;;;;-5.20;99.90;;;-6.63;100.00;98525.88;5062628;28;2597;-69
2024/01/10 05:56:34;;;;;;;;;;;-5.20;99.90;;;-6.60;100.00;98526.00;5061067;28;1360;-65
2024/01/10 05:59:01;;;;;;;;;;;-5.20;99.90;;;-6.85;100.00;98519.09;5062452;28;1318;-69
2024/01/10 06:01:28;;;;;;;;;;;-5.30;99.90;;;-6.63;100.00;98530.94;5063650;28;1392;-66
2024/01/10 06:03:56;;;;;;;;;;;-5.20;99.90;;;-6.75;100.00;98532.94;5060582;28;1840;-69
2024/01/10 06:06:23;;;;;;;;;;;-5.20;99.90;;;-6.64;100.00;98526.66;5060323;28;1462;-66
2024/01/10 06:08:51;;;;;;;;;;;-5.20;99.90;;;-6.70;100.00;98525.56;5063061;28;2102;-68
2024/01/10 06:11:19;;;;;;;;;;;-5.20;99.90;;;-6.76;100.00;98524.53;5061584;28;1915;-69
2024/01/10 06:13:46;;;;;;;;;;;-5.20;99.90;;;-6.80;100.00;98527.72;5061916;28;1905;-70
2024/01/10 06:16:22;;;;;;;;;;;-5.20;99.90;;;-6.83;100.00;98530.13;5047634;28;1201;-68
2024/01/10 06:18:49;;;;;;;;;;;-5.30;99.90;;;-6.78;100.00;98518.53;5064669;28;1112;-68
2024/01/10 06:21:16;;;;;;;;;;;-5.20;99.90;;;-6.77;100.00;98519.44;5060691;28;3088;-68
2024/01/10 06:23:45;;;;;;;;;;;-5.30;99.90;;;-6.84;100.00;98527.53;5062569;28;2864;-70
2024/01/10 06:26:12;;;;;;;;;;;-5.30;99.90;;;-6.84;100.00;98541.03;5061606;28;2614;-69
2024/01/10 06:28:39;;;;;;;;;;;-5.30;99.90;;;-6.89;100.00;98524.81;5062189;28;2718;-68
2024/01/10 06:31:06;;;;;;;;;;;-5.30;99.90;;;-6.98;100.00;98526.94;5061917;28;1241;-68
2024/01/10 06:33:37;;;;;;;;;;;-5.40;99.90;;;-6.92;100.00;98537.31;5064485;28;1973;-68
2024/01/10 06:36:05;;;;;;;;;;;-5.50;99.90;;;-6.99;100.00;98520.19;5059461;28;1194;-70
2024/01/10 06:38:34;;;;;;;;;;;-5.40;99.90;;;-7.05;100.00;98530.88;5065752;28;2095;-67
2024/01/10 06:41:07;;;;;;;;;;;-5.40;99.90;;;-6.95;100.00;98537.19;5062544;28;1565;-68
2024/01/10 06:43:36;;;;;;;;;;;-5.40;99.90;;;-7.01;100.00;98539.47;5060086;28;1406;-69
2024/01/10 06:46:03;;;;;;;;;;;-5.50;99.90;;;-7.03;100.00;98536.00;5061006;28;1435;-67
2024/01/10 06:48:31;;;;;;;;;;;-5.50;99.90;;;-7.00;100.00;98544.59;5063779;28;1268;-68
2024/01/10 06:50:59;;;;;;;;;;;-5.50;99.90;;;-7.08;100.00;98530.75;5062240;28;1431;-68
2024/01/10 06:53:25;;;;;;;;;;;-5.50;99.90;;;-7.19;100.00;98529.44;5061350;28;2145;-69
2024/01/10 06:55:52;;;;;;;;;;;-5.60;99.90;;;-7.13;100.00;98536.44;5060653;28;2440;-68
2024/01/10 06:58:19;;;;;;;;;;;-5.60;99.90;;;-7.19;100.00;98537.00;5063317;28;1423;-68
2024/01/10 07:00:46;;;;;;;;;;;-5.70;99.90;;;-7.09;100.00;98549.25;5058554;28;1312;-69
2024/01/10 07:03:13;;;;;;;;;;;-5.70;99.90;;;-7.16;100.00;98553.16;5063635;28;1457;-68
2024/01/10 07:05:40;;;;;;;;;;;-5.60;99.90;;;-7.20;100.00;98550.44;5058248;28;1252;-68
2024/01/10 07:08:07;;;;;;;;;;;-5.70;99.90;;;-7.12;100.00;98546.56;5062439;28;1454;-69
2024/01/10 07:10:34;;;;;;;;;;;-5.60;99.90;;;-7.10;100.00;98554.22;5064337;28;1122;-68
2024/01/10 07:13:04;;;;;;;;;;;-5.60;99.90;;;-7.11;100.00;98552.50;5062514;28;3650;-68
2024/01/10 07:15:31;;;;;;;;;;;-5.60;99.90;;;-7.21;100.00;98549.56;5058193;28;1285;-68
2024/01/10 07:17:59;;;;;;;;;;;-5.60;99.90;;;-7.21;100.00;98552.06;5047529;28;1405;-69
2024/01/10 07:20:26;;;;;;;;;;;-5.70;99.90;;;-7.14;100.00;98555.72;5056850;28;1234;-68
2024/01/10 07:22:53;;;;;;;;;;;-5.60;99.90;;;-7.07;100.00;98562.78;5043378;28;1272;-68
2024/01/10 07:25:22;;;;;;;;;;;-5.70;99.90;;;-7.04;100.00;98565.44;5058183;28;2008;-69
2024/01/10 07:27:49;;;;;;;;;;;-5.60;99.90;;;-6.87;100.00;98558.56;5043361;28;1425;-69
2024/01/10 07:30:16;;;;;;;;;;;-5.60;99.90;;;-6.82;100.00;98566.31;5058524;28;1132;-68
2024/01/10 07:32:43;;;;;;;;;;;-5.50;99.90;;;-6.81;100.00;98565.53;5037356;28;2023;-68
2024/01/10 07:35:12;;;;;;;;;;;-5.40;99.90;;;-6.85;100.00;98563.69;5040809;28;1340;-68
2024/01/10 07:37:41;;;;;;;;;;;-5.50;99.90;;;-6.55;100.00;98571.66;5056730;28;1065;-69
2024/01/10 07:40:08;;;;;;;;;;;-5.30;99.90;;;-6.60;100.00;98573.97;5056701;28;2678;-69
2024/01/10 07:42:35;;;;;;;;;;;-5.20;99.90;;;-6.62;100.00;98574.72;5038239;28;1316;-67
2024/01/10 07:45:04;;;;;;;;;;;-5.20;99.90;;;-6.66;100.00;98572.88;5054823;28;1065;-68
2024/01/10 07:47:31;;;;;;;;;;;-5.30;99.90;;;-6.55;100.00;98572.50;5059571;28;963;-69
2024/01/10 07:49:58;;;;;;;;;;;-5.20;99.90;;;-6.48;100.00;98568.56;5033573;28;1131;-68
2024/01/10 07:52:25;;;;;;;;;;;-5.20;99.90;;;-6.46;100.00;98574.53;5055461;28;1987;-69
2024/01/10 07:54:52;;;;;;;;;;;-5.10;99.90;;;-6.34;100.00;98571.63;5058075;28;3464;-69
2024/01/10 07:57:19;;;;;;;;;;;-5.10;99.90;;;-6.21;100.00;98565.41;5058448;28;1566;-69
2024/01/10 07:59:45;;;;;;;;;;;-5.00;99.90;;;-6.14;100.00;98570.75;5057174;28;1224;-68
2024/01/10 08:02:12;;;;;;;;;;;-4.90;99.90;;;-6.08;100.00;98566.78;5053562;28;1272;-68
2024/01/10 08:04:39;;;;;;;;;;;-4.80;99.90;;;-6.11;100.00;98565.84;5040122;28;1061;-69
2024/01/10 08:07:06;;;;;;;;;;;-4.70;99.90;;;-5.95;100.00;98568.97;5055422;28;1197;-68
2024/01/10 08:09:33;;;;;;;;;;;-4.60;99.90;;;-6.01;100.00;98576.31;5058624;28;2539;-68
2024/01/10 08:12:00;;;;;;;;;;;-4.70;99.90;;;-5.88;100.00;98566.69;5057228;28;2677;-69
2024/01/10 08:14:27;;;;;;;;;;;-4.60;99.90;;;-5.84;100.00;98572.72;5060941;28;1907;-67
2024/01/10 08:16:54;;;;;;;;;;;-4.60;99.90;;;-5.80;100.00;98579.63;5057687;28;1410;-69
2024/01/10 08:19:22;;;;;;;;;;;-4.40;99.90;;;-5.70;100.00;98570.72;5040723;28;1088;-68
2024/01/10 08:21:50;;;;;;;;;;;-4.40;99.90;;;-5.74;100.00;98567.22;5059227;28;1658;-69
2024/01/10 08:24:17;;;;;;;;;;;-4.40;99.90;;;-5.59;100.00;98574.50;5058667;28;2082;-68
2024/01/10 08:26:44;;;;;;;;;;;-4.40;99.90;;;-5.53;100.00;98569.66;5054778;28;2645;-69
2024/01/10 08:29:11;;;;;;;;;;;-4.20;99.90;;;-5.71;100.00;98567.31;5038771;28;1294;-70
2024/01/10 08:31:38;;;;;;;;;;;-4.20;99.90;;;-5.65;100.00;98566.69;5061139;28;1161;-67
2024/01/10 08:34:05;;;;;;;;;;;-4.20;99.90;;;-5.48;100.00;98559.72;5057969;28;1909;-69
2024/01/10 08:36:35;;;;;;;;;;;-4.10;99.90;;;-5.65;100.00;98565.84;5059567;28;1172;-68
2024/01/10 08:39:03;;;;;;;;;;;-4.10;99.90;;;-5.37;100.00;98562.66;5058852;28;1230;-67
2024/01/10 08:41:30;;;;;;;;;;;-4.00;99.90;;;-5.55;100.00;98558.63;5056537;28;1153;-68
2024/01/10 08:43:57;;;;;;;;;;;-4.00;99.90;;;-5.58;100.00;98561.06;5056578;28;1439;-68
2024/01/10 08:46:24;;;;;;;;;;;-4.10;99.90;;;-5.56;100.00;98566.19;5058676;28;1169;-68
2024/01/10 08:48:51;;;;;;;;;;;-4.10;99.90;;;-5.52;100.00;98568.88;5065396;28;1315;-70
2024/01/10 08:51:18;;;;;;;;;;;-4.10;99.90;;;-5.57;100.00;98572.03;5057944;28;4225;-67
2024/01/10 08:53:45;;;;;;;;;;;-4.10;99.90;;;-5.43;100.00;98570.00;5060394;28;1987;-70
2024/01/10 08:56:12;;;;;;;;;;;-4.10;99.90;;;-5.50;100.00;98564.72;5059730;28;1093;-69
2024/01/10 08:58:39;;;;;;;;;;;-4.00;99.90;;;-5.42;100.00;98569.22;5061157;28;1086;-68
2024/01/10 09:01:08;;;;;;;;;;;-3.90;99.90;;;-5.18;100.00;98565.00;5058630;28;1189;-69
2024/01/10 09:03:35;;;;;;;;;;;-3.80;99.90;;;-5.21;100.00;98564.06;5060509;28;1395;-68
2024/01/10 09:06:03;;;;;;;;;;;-3.80;99.90;;;-5.01;100.00;98558.03;5062700;28;1097;-68
2024/01/10 09:08:37;;;;;;;;;;;-3.80;99.90;;;-5.10;100.00;98563.63;5049168;28;1168;-69
2024/01/10 09:11:04;;;;;;;;;;;-3.70;99.90;;;-5.16;100.00;98560.00;5059576;28;2070;-68
2024/01/10 09:13:31;;;;;;;;;;;-3.70;99.90;;;-4.99;100.00;98561.47;5057856;28;2674;-69
2024/01/10 09:15:59;;;;;;;;;;;-3.70;99.90;;;-5.03;100.00;98571.44;5059272;28;1427;-68
2024/01/10 09:18:26;;;;;;;;;;;-3.60;99.90;;;-5.05;100.00;98577.28;5056787;28;1119;-68
2024/01/10 09:20:53;;;;;;;;;;;-3.60;99.90;;;-5.07;100.00;98578.06;5059226;28;1435;-68
2024/01/10 09:23:21;;;;;;;;;;;-3.60;99.90;;;-5.10;100.00;98572.91;5060114;28;1414;-68
2024/01/10 09:25:48;;;;;;;;;;;-3.70;99.90;;;-5.12;100.00;98571.97;5058274;28;1108;-68
2024/01/10 09:28:15;;;;;;;;;;;-3.60;99.90;;;-5.09;100.00;98572.91;5056956;28;2970;-68
2024/01/10 09:30:42;;;;;;;;;;;-3.70;99.90;;;-5.12;100.00;98582.09;5064404;28;1097;-69
2024/01/10 09:33:09;;;;;;;;;;;-3.70;99.90;;;-5.23;100.00;98580.84;5062016;28;2029;-69
2024/01/10 09:35:36;;;;;;;;;;;-3.80;99.90;;;-5.19;100.00;98577.63;5061403;28;1610;-69
2024/01/10 09:38:03;;;;;;;;;;;-3.80;99.90;;;-5.12;100.00;98575.34;5063432;28;2317;-68
2024/01/10 09:40:31;;;;;;;;;;;-3.80;99.90;;;-5.12;100.00;98577.03;5065268;28;1180;-69
2024/01/10 09:42:58;;;;;;;;;;;-3.70;99.90;;;-5.10;100.00;98570.38;5064462;28;2887;-68
2024/01/10 09:45:26;;;;;;;;;;;-3.70;99.90;;;-5.11;100.00;98577.09;5062226;28;1326;-65
2024/01/10 09:47:56;;;;;;;;;;;-3.60;99.90;;;-5.02;100.00;98568.94;5025980;28;1285;-67
2024/01/10 09:50:25;;;;;;;;;;;-3.70;99.90;;;-5.03;100.00;98566.38;5057969;28;2674;-66
2024/01/10 09:53:00;;;;;;;;;;;-3.60;99.90;;;-5.01;100.00;98579.94;5062914;28;2698;-65
2024/01/10 09:55:31;;;;;;;;;;;-3.70;99.90;;;-4.93;100.00;98579.38;5061978;28;2768;-68
2024/01/10 09:57:58;;;;;;;;;;;-3.70;99.90;;;-4.82;100.00;98581.44;5062451;28;1281;-69
2024/01/10 10:00:25;;;;;;;;;;;-3.50;99.90;;;-4.85;100.00;98579.66;5064529;28;1193;-68
2024/01/10 10:02:53;;;;;;;;;;;-3.50;99.90;;;-4.80;100.00;98582.34;5055200;28;1336;-66
2024/01/10 10:05:21;;;;;;;;;;;-3.50;99.90;;;-4.83;100.00;98575.53;5062503;28;1081;-66
2024/01/10 10:07:50;;;;;;;;;;;-3.40;99.90;;;-4.80;100.00;98573.09;5063331;28;1340;-68
2024/01/10 10:10:18;;;;;;;;;;;-3.50;99.90;;;-4.71;100.00;98573.38;5062983;28;3220;-67
2024/01/10 10:12:46;;;;;;;;;;;-3.30;99.90;;;-4.73;100.00;98581.75;5063099;28;2389;-68
2024/01/10 10:15:17;;;;;;;;;;;-3.30;99.90;;;-4.65;100.00;98576.13;5063560;28;1189;-69
2024/01/10 10:17:48;;;;;;;;;;;-3.30;99.90;;;-4.62;100.00;98580.44;5064561;28;1351;-68
2024/01/10 10:20:38;;;;;;;;;;;-3.20;99.90;;;-4.51;100.00;98583.34;5061366;28;1066;-68
2024/01/10 10:23:06;;;;;;;;;;;-3.30;99.90;;;-4.47;100.00;98585.13;5060990;28;2121;-69
2024/01/10 10:25:35;;;;;;;;;;;-3.20;99.90;;;-4.45;100.00;98574.28;5064642;28;1344;-68
2024/01/10 10:28:03;;;;;;;;;;;-3.10;99.90;;;-4.42;100.00;98571.81;5058771;28;1251;-68
2024/01/10 10:30:32;;;;;;;;;;;-3.10;99.90;;;-4.34;100.00;98568.66;5064001;28;1260;-69
2024/01/10 10:33:00;;;;;;;;;;;-3.10;99.90;;;-4.35;100.00;98579.63;5060310;28;2776;-68
2024/01/10 10:35:27;;;;;;;;;;;-3.00;99.90;;;-4.20;100.00;98569.97;5058096;28;2032;-69
2024/01/10 10:38:08;;;;;;;;;;;-3.00;99.90;;;-4.19;100.00;98575.91;5064008;28;1237;-69
2024/01/10 10:40:35;;;;;;;;;;;-3.00;99.90;;;-4.19;100.00;98566.63;5056445;28;1569;-68
2024/01/10 10:43:04;;;;;;;;;;;-2.90;99.90;;;-4.10;100.00;98574.53;5061362;28;1387;-68
2024/01/10 10:45:33;;;;;;;;;;;-2.80;99.90;;;-4.00;100.00;98570.59;5063541;28;2659;-68
2024/01/10 10:48:01;;;;;;;;;;;-2.80;99.90;;;-3.93;100.00;98567.44;5059590;28;1237;-69
2024/01/10 10:50:33;;;;;;;;;;;-2.80;99.90;;;-3.91;100.00;98565.81;5061975;28;1489;-68
2024/01/10 10:53:03;;;;;;;;;;;-2.70;99.90;;;-3.96;100.00;98564.81;5063895;28;1898;-68
2024/01/10 10:55:31;;;;;;;;;;;-2.70;99.90;;;-3.85;100.00;98562.59;5045152;28;1437;-69
2024/01/10 10:57:58;;;;;;;;;;;-2.60;99.90;;;-3.74;100.00;98561.25;5043475;28;2543;-68
2024/01/10 11:00:36;;;;;;;;;;;-2.50;99.90;;;-3.72;100.00;98556.22;5047656;28;2598;-69
2024/01/10 11:03:03;;;;;;;;;;;-2.50;99.90;;;-3.63;100.00;98557.31;5058281;28;1410;-68
2024/01/10 11:05:30;;;;;;;;;;;-2.50;99.90;;;-3.45;100.00;98558.69;5044287;28;1448;-69
2024/01/10 11:07:58;;;;;;;;;;;-2.40;99.90;;;-3.40;100.00;98555.47;5061222;28;1749;-69
2024/01/10 11:10:29;;;;;;;;;;;-2.30;99.90;;;-3.47;100.00;98556.09;5044536;28;1405;-66
2024/01/10 11:13:33;;;;;;;;;;;-2.20;99.90;;;-3.23;100.00;98566.09;5040423;28;1991;-68
2024/01/10 11:16:29;;;;;;;;;;;-2.20;99.90;;;-3.17;100.00;98562.84;5060763;28;2564;-69
2024/01/10 11:19:09;;;;;;;;;;;-2.10;99.90;;;-3.15;100.00;98563.75;5061133;28;1388;-66